Airport View

Enter AWOS ICAO identifier for current METAR.

ex. KFNL

KGAF 171245Z AUTO 33009KT 10SM OVC022 M02/M05 A2998 RMK AO2

17 Nov 2019 12:45

Frequency: 118.625

Phone: 701-352-0581

Other Area AWOS: K2C8 - KRDR - KHCO - KGFK

TAF KRDR 171000Z 1710/1816 31012KT 9999 BKN015 620152 QNH2986INS BECMG 1710/1712 31012KT 9999 BKN020 620202 QNH2986INS BECMG 1720/1721 VRB06KT 9999 SCT020 QNH2978INS BECMG 1802/1803 18010KT 9999 OVC015 620152 QNH2966INS TX02/1721Z TNM02/1712Z